createdAt,value
2023-01-29T00:00:05.786Z,7.50
2023-01-29T00:05:26.525Z,8.15
2023-01-29T00:10:29.481Z,7.68
2023-01-29T00:15:33.041Z,7.13
2023-01-29T00:20:35.185Z,7.28
2023-01-29T00:25:37.325Z,6.80
2023-01-29T00:30:41.507Z,7.72
2023-01-29T00:35:43.625Z,6.80
2023-01-29T00:40:45.807Z,6.07
2023-01-29T00:45:49.336Z,6.60
2023-01-29T00:50:51.484Z,5.82
2023-01-29T00:55:53.645Z,6.40
2023-01-29T01:00:57.329Z,6.05
2023-01-29T01:06:05.832Z,6.40
2023-01-29T01:11:07.968Z,6.18
2023-01-29T01:16:13.639Z,5.30
2023-01-29T01:21:15.748Z,5.60
2023-01-29T01:26:18.173Z,6.03
2023-01-29T01:31:21.862Z,5.32
2023-01-29T01:36:24.026Z,5.55
2023-01-29T01:41:26.140Z,5.28
2023-01-29T01:46:32.223Z,5.18
2023-01-29T01:51:40.353Z,5.50
2023-01-29T01:56:46.587Z,5.57
2023-01-29T02:01:54.230Z,5.10
2023-01-29T02:06:58.510Z,5.45
2023-01-29T02:12:02.448Z,5.05
2023-01-29T02:17:07.164Z,4.82
2023-01-29T02:22:37.012Z,5.30
2023-01-29T02:28:14.314Z,5.90
2023-01-29T02:33:25.987Z,5.15
2023-01-29T02:38:36.679Z,5.25
2023-01-29T02:43:45.467Z,6.68
2023-01-29T02:48:55.578Z,5.55
2023-01-29T02:54:02.518Z,5.22
2023-01-29T02:59:10.054Z,5.85
2023-01-29T03:04:19.704Z,5.75
2023-01-29T03:09:28.553Z,6.72
2023-01-29T03:14:36.537Z,6.57
2023-01-29T03:19:42.607Z,6.55
2023-01-29T03:24:48.226Z,6.85
2023-01-29T03:29:54.782Z,6.78
2023-01-29T03:35:02.293Z,6.78
2023-01-29T03:40:07.233Z,7.07
2023-01-29T03:45:18.338Z,8.40
2023-01-29T03:50:33.001Z,9.07
2023-01-29T03:55:41.939Z,8.57
2023-01-29T04:00:53.686Z,10.45
2023-01-29T04:06:03.455Z,10.63
2023-01-29T04:11:12.914Z,10.73
2023-01-29T04:16:19.662Z,10.85
2023-01-29T04:21:22.808Z,12.95
2023-01-29T04:26:56.782Z,12.65
2023-01-29T04:32:09.583Z,12.82
2023-01-29T04:37:17.017Z,13.77
2023-01-29T04:42:29.362Z,13.68
2023-01-29T04:47:41.776Z,14.45
2023-01-29T04:52:51.100Z,14.02
2023-01-29T04:57:59.042Z,14.45
2023-01-29T05:03:02.918Z,15.05
2023-01-29T05:08:05.989Z,14.45
2023-01-29T05:13:11.866Z,15.25
2023-01-29T05:18:15.469Z,14.77
2023-01-29T05:23:18.442Z,16.00
2023-01-29T05:28:20.595Z,14.35
2023-01-29T05:33:25.891Z,15.63
2023-01-29T05:38:29.303Z,16.10
2023-01-29T05:43:31.487Z,15.38
2023-01-29T05:48:35.055Z,14.95
2023-01-29T05:53:37.236Z,14.32
2023-01-29T05:58:39.534Z,15.15
2023-01-29T06:03:43.450Z,13.02
2023-01-29T06:08:45.695Z,13.25
2023-01-29T06:13:48.026Z,14.63
2023-01-29T06:18:51.609Z,14.38
2023-01-29T06:23:54.130Z,16.75
2023-01-29T06:28:56.323Z,15.05
2023-01-29T06:33:59.818Z,13.70
2023-01-29T06:39:02.059Z,14.45
2023-01-29T06:44:04.325Z,15.30
2023-01-29T06:49:07.857Z,16.27
2023-01-29T06:54:10.213Z,15.55
2023-01-29T06:59:12.433Z,14.13
2023-01-29T07:04:15.974Z,15.43
2023-01-29T07:09:18.159Z,13.05
2023-01-29T07:14:20.395Z,15.20
2023-01-29T07:19:23.912Z,13.70
2023-01-29T07:24:26.292Z,14.80
2023-01-29T07:29:28.474Z,15.95
2023-01-29T07:34:32.146Z,15.30
2023-01-29T07:39:34.236Z,16.17
2023-01-29T07:44:36.330Z,13.80
2023-01-29T07:49:39.902Z,16.30
2023-01-29T07:54:42.007Z,14.52
2023-01-29T07:59:44.196Z,13.88
2023-01-29T08:04:47.737Z,16.05
2023-01-29T08:09:50.500Z,17.02
2023-01-29T08:14:52.630Z,16.23
2023-01-29T08:19:56.257Z,15.18
2023-01-29T08:25:06.428Z,16.23
2023-01-29T08:30:12.586Z,16.40
2023-01-29T08:35:16.602Z,14.25
2023-01-29T08:40:19.615Z,16.20
2023-01-29T08:45:21.893Z,15.65
2023-01-29T08:50:25.487Z,15.80
2023-01-29T08:55:30.592Z,15.45
2023-01-29T09:00:32.739Z,16.77
2023-01-29T09:05:37.782Z,16.05
2023-01-29T09:10:39.994Z,16.13
2023-01-29T09:15:42.091Z,15.85
2023-01-29T09:20:45.690Z,15.45
2023-01-29T09:25:47.864Z,16.65
2023-01-29T09:30:50.081Z,15.75
2023-01-29T09:35:53.851Z,16.65
2023-01-29T09:41:04.215Z,16.38
2023-01-29T09:46:14.760Z,16.45
2023-01-29T09:51:29.040Z,15.48
2023-01-29T09:56:31.976Z,16.23
2023-01-29T10:01:42.349Z,16.85
2023-01-29T10:06:57.657Z,16.98
2023-01-29T10:12:12.972Z,17.35
2023-01-29T10:17:41.648Z,14.63
2023-01-29T10:23:02.304Z,15.98
2023-01-29T10:28:16.976Z,14.43
2023-01-29T10:33:24.976Z,17.77
2023-01-29T10:38:38.611Z,16.98
2023-01-29T10:43:51.656Z,16.67
2023-01-29T10:49:05.352Z,19.08
2023-01-29T10:54:25.324Z,17.73
2023-01-29T10:59:46.166Z,17.30
2023-01-29T11:04:48.674Z,17.48
2023-01-29T11:09:57.721Z,17.50
2023-01-29T11:15:06.095Z,19.80
2023-01-29T11:20:26.866Z,15.73
2023-01-29T11:25:31.462Z,17.90
2023-01-29T11:30:37.417Z,18.05
2023-01-29T11:35:39.510Z,17.98
2023-01-29T11:40:43.925Z,19.48
2023-01-29T11:45:47.220Z,18.55
2023-01-29T11:50:54.729Z,18.98
2023-01-29T11:55:58.301Z,17.25
2023-01-29T12:01:00.578Z,17.98
2023-01-29T12:06:06.710Z,18.17
2023-01-29T12:11:13.570Z,18.08
2023-01-29T12:16:26.907Z,18.40
2023-01-29T12:21:35.694Z,18.27
2023-01-29T12:26:45.710Z,18.38
2023-01-29T12:31:58.290Z,17.80
2023-01-29T12:37:09.485Z,22.02
2023-01-29T12:42:18.139Z,18.08
2023-01-29T12:47:24.436Z,15.25
2023-01-29T12:52:37.683Z,17.20
2023-01-29T12:57:46.743Z,16.33
2023-01-29T13:02:55.597Z,16.42
2023-01-29T13:08:06.362Z,14.98
2023-01-29T13:13:19.534Z,16.83
2023-01-29T13:18:40.224Z,18.38
2023-01-29T13:23:45.175Z,15.82
2023-01-29T13:28:51.121Z,18.13
2023-01-29T13:33:55.386Z,18.77
2023-01-29T13:39:19.298Z,18.17
2023-01-29T13:44:25.082Z,17.75
2023-01-29T13:49:34.947Z,18.48
2023-01-29T13:54:38.534Z,18.80
2023-01-29T13:59:52.966Z,16.45
2023-01-29T14:05:28.131Z,17.95
2023-01-29T14:10:34.420Z,17.55
2023-01-29T14:15:38.408Z,16.73
2023-01-29T14:20:50.829Z,16.20
2023-01-29T14:25:54.762Z,15.63
2023-01-29T14:30:57.198Z,16.63
2023-01-29T14:36:03.369Z,17.52
2023-01-29T14:41:21.953Z,16.38
2023-01-29T14:46:44.938Z,14.10
2023-01-29T14:51:49.141Z,16.55
2023-01-29T14:57:00.523Z,15.35
2023-01-29T15:02:15.114Z,17.08
2023-01-29T15:07:27.871Z,17.67
2023-01-29T15:12:41.927Z,18.15
2023-01-29T15:17:57.869Z,18.05
2023-01-29T15:23:01.232Z,19.52
2023-01-29T15:28:07.593Z,18.15
2023-01-29T15:33:12.065Z,19.20
2023-01-29T15:38:17.848Z,14.93
2023-01-29T15:43:26.429Z,15.05
2023-01-29T15:48:33.432Z,16.75
2023-01-29T15:53:42.837Z,17.90
2023-01-29T15:58:51.308Z,16.63
2023-01-29T16:03:54.807Z,16.55
2023-01-29T16:08:57.748Z,17.63
2023-01-29T16:14:06.436Z,16.10
2023-01-29T16:19:21.464Z,19.80
2023-01-29T16:24:25.360Z,15.73
2023-01-29T16:29:33.982Z,16.75
2023-01-29T16:34:40.631Z,23.58
2023-01-29T16:39:49.682Z,17.52
2023-01-29T16:44:59.754Z,16.30
2023-01-29T16:50:23.523Z,15.63
2023-01-29T16:55:27.275Z,19.42
2023-01-29T17:00:32.299Z,20.00
2023-01-29T17:05:38.698Z,18.80
2023-01-29T17:10:48.845Z,21.23
2023-01-29T17:15:55.792Z,20.40
2023-01-29T17:21:01.718Z,19.27
2023-01-29T17:26:14.778Z,22.15
2023-01-29T17:31:28.238Z,25.88
2023-01-29T17:36:31.143Z,22.10
2023-01-29T17:41:37.348Z,24.20
2023-01-29T17:46:51.359Z,24.20
2023-01-29T17:52:00.771Z,25.23
2023-01-29T17:57:08.128Z,25.85
2023-01-29T18:02:29.793Z,28.52
2023-01-29T18:07:32.864Z,21.58
2023-01-29T18:12:35.689Z,24.25
2023-01-29T18:17:42.071Z,22.02
2023-01-29T18:22:46.985Z,25.00
2023-01-29T18:27:59.069Z,23.95
2023-01-29T18:33:03.344Z,24.60
2023-01-29T18:38:06.709Z,26.55
2023-01-29T18:43:09.804Z,23.20
2023-01-29T18:48:14.431Z,24.70
2023-01-29T18:53:17.604Z,27.63
2023-01-29T18:58:27.787Z,24.48
2023-01-29T19:03:42.408Z,26.52
2023-01-29T19:08:54.687Z,25.33
2023-01-29T19:13:59.403Z,24.50
2023-01-29T19:19:03.746Z,24.92
2023-01-29T19:24:10.028Z,22.95
2023-01-29T19:29:15.939Z,25.67
2023-01-29T19:34:20.260Z,23.15
2023-01-29T19:39:23.095Z,23.75
2023-01-29T19:44:25.696Z,20.95
2023-01-29T19:49:52.122Z,21.40
2023-01-29T19:54:54.631Z,23.25
2023-01-29T20:00:01.334Z,21.40
2023-01-29T20:05:06.836Z,20.85
2023-01-29T20:10:14.960Z,22.20
2023-01-29T20:15:20.450Z,27.67
2023-01-29T20:20:25.512Z,22.65
2023-01-29T20:25:35.441Z,21.48
2023-01-29T20:30:41.670Z,21.27
2023-01-29T20:35:46.413Z,22.67
2023-01-29T20:40:52.237Z,17.65
2023-01-29T20:45:58.207Z,19.38
2023-01-29T20:51:14.184Z,23.23
2023-01-29T20:56:23.740Z,21.27
2023-01-29T21:01:40.963Z,22.42
2023-01-29T21:06:51.359Z,21.88
2023-01-29T21:12:12.420Z,21.80
2023-01-29T21:17:15.379Z,20.75
2023-01-29T21:22:27.604Z,22.10
2023-01-29T21:27:35.374Z,20.53
2023-01-29T21:32:45.513Z,21.55
2023-01-29T21:37:52.651Z,17.17
2023-01-29T21:42:58.084Z,20.65
2023-01-29T21:48:10.581Z,16.50
2023-01-29T21:53:25.057Z,19.65
2023-01-29T21:58:28.976Z,20.08
2023-01-29T22:03:37.527Z,17.02
2023-01-29T22:08:45.113Z,17.30
2023-01-29T22:14:00.353Z,19.58
2023-01-29T22:19:08.500Z,18.42
2023-01-29T22:24:14.807Z,19.50
2023-01-29T22:29:20.084Z,18.42
2023-01-29T22:34:24.595Z,17.45
2023-01-29T22:39:29.645Z,17.40
2023-01-29T22:44:32.498Z,15.88
2023-01-29T22:49:42.976Z,19.60
2023-01-29T22:54:51.273Z,19.08
2023-01-29T22:59:57.741Z,18.45
2023-01-29T23:05:00.641Z,17.63
2023-01-29T23:10:08.798Z,17.38
2023-01-29T23:15:13.785Z,16.98
2023-01-29T23:20:19.044Z,15.75
2023-01-29T23:25:23.431Z,16.77
2023-01-29T23:30:28.825Z,14.63
2023-01-29T23:35:35.609Z,15.68
2023-01-29T23:40:46.868Z,16.58
2023-01-29T23:45:53.541Z,13.82
2023-01-29T23:50:56.361Z,13.80
2023-01-29T23:56:05.161Z,13.32
